Latest Weather Observations for Gunnedah Airport

IDN60801

Issued at 4:02 pm EST Wednesday 2 September 2015 (issued every 30 minutes, with the page automatically refreshed every 10 minutes)

About weather observations | Map of weather stations | Latest weather observations for NSW | Other Formats
Station Details ID: 055202 Name: GUNNEDAH AIRPORT AWS Lat: -30.95 Lon: 150.25 Height: 262.57 m
Data from the previous 72 hours. | See also: Recent months at Gunnedah Airport
Date/Time
EST
Temp
°C
App
Temp
°C
Dew
Point
Rel
Hum
%
Delta-T
°C
Wind Press
QNH
hPa
Press
MSL
hPa
Rain
since 9 am
mm
Dir
 
Spd
km/h
Gust
km/h
Spd
kts
Gust
kts
02/04:00pm 20.0 18.7 4.1 35 7.7 CALM 0 2 0 1 1012.1 1011.8 0.0
02/03:30pm 20.1 18.7 5.7 39 7.2 SE 2 9 1 5 1012.1 1011.8 0.0
02/03:00pm 20.4 17.8 4.0 34 8.0 ENE 7 11 4 6 1012.5 1012.2 0.0
02/02:30pm 20.7 18.3 5.1 36 7.8 ESE 7 13 4 7 1012.8 1012.5 0.0
02/02:00pm 20.0 17.2 5.3 38 7.3 E 9 15 5 8 1013.5 1013.2 0.0
02/01:30pm 19.0 15.8 5.1 40 6.8 ESE 11 15 6 8 1014.0 1013.7 0.0
02/01:00pm 19.0 16.3 5.5 41 6.7 ESE 9 17 5 9 1014.6 1014.3 0.0
02/12:30pm 18.4 16.1 5.6 43 6.3 E 7 13 4 7 1015.5 1015.2 0.0
02/12:00pm 17.8 15.8 6.3 47 5.7 ENE 6 11 3 6 1016.4 1016.1 0.0
02/11:30am 16.6 14.0 6.1 50 5.2 SE 9 15 5 8 1017.0 1016.7 0.0
02/11:00am 15.0 12.1 6.6 57 4.1 S 11 15 6 8 1017.5 1017.3 0.0
02/10:30am 13.6 10.6 6.0 60 3.7 SE 11 15 6 8 1017.7 1017.5 0.0
02/10:00am 12.6 8.9 6.4 66 3.0 SE 15 19 8 10 1018.1 1017.9 0.0
02/09:30am 12.6 8.8 5.8 63 3.2 SE 15 20 8 11 1018.5 1018.2 0.0
02/09:00am 10.6 6.2 4.5 66 2.8 SE 17 20 9 11 1018.7 1018.4 0.0
02/08:30am 9.0 4.6 4.6 74 2.0 SE 17 20 9 11 1019.0 1018.7 0.0
02/08:00am 8.5 5.2 4.7 77 1.7 SSE 11 15 6 8 1018.8 1018.5 0.0
02/07:30am 7.3 4.2 3.7 78 1.6 SSE 9 13 5 7 1018.6 1018.3 0.0
02/07:00am 6.9 3.9 3.9 81 1.3 ESE 9 13 5 7 1018.1 1017.9 0.0
02/06:30am 6.1 4.7 3.8 85 1.0 CALM 0 0 0 0 1018.4 1018.1 0.0
02/06:00am 5.8 2.3 3.6 86 0.9 SSE 11 13 6 7 1018.1 1017.9 0.0
02/05:30am 6.2 2.4 3.7 84 1.1 SE 13 17 7 9 1017.5 1017.3 0.0
02/05:00am 5.0 2.8 3.5 90 0.6 ESE 4 7 2 4 1017.4 1017.1 0.0
02/04:30am 4.4 2.9 3.1 91 0.5 CALM 0 0 0 0 1017.6 1017.4 0.0
02/04:00am 4.0 1.7 2.5 90 0.6 SSE 4 7 2 4 1017.6 1017.4 0.0
02/03:30am 3.8 0.6 2.8 93 0.4 S 9 11 5 6 1017.4 1017.1 0.0
02/03:00am 2.6 0.9 1.6 93 0.4 CALM 0 0 0 0 1017.5 1017.3 0.0
02/02:30am 2.2 -0.7 1.2 93 0.4 ESE 6 6 3 3 1017.4 1017.1 0.0
02/02:00am 0.9 -1.1 -0.4 91 0.5 CALM 0 0 0 0 1017.7 1017.5 0.0
02/01:30am 2.0 -1.0 0.5 90 0.6 SSE 6 7 3 4 1017.8 1017.6 0.0
02/01:00am 2.1 -1.5 0.3 88 0.7 S 9 11 5 6 1017.9 1017.7 0.0
02/12:30am 3.4 1.8 2.4 93 0.4 CALM 0 0 0 0 1018.0 1017.8 0.0
02/12:00am 1.9 -0.9 -0.3 85 0.8 NNE 4 9 2 5 1017.9 1017.7 0.0
 
Date/Time
EST
Temp
°C
App
Temp
°C
Dew
Point
Rel
Hum
%
Delta-T
°C
Wind Press
QNH
hPa
Press
MSL
hPa
Rain
since 9 am
mm
Dir
 
Spd
km/h
Gust
km/h
Spd
kts
Gust
kts
01/11:30pm 2.9 1.2 1.6 91 0.5 CALM 0 0 0 0 1017.5 1017.3 0.0
01/11:00pm 2.8 -0.2 0.9 87 0.7 WSW 6 7 3 4 1017.5 1017.3 0.0
01/10:30pm 4.9 3.5 3.4 90 0.6 CALM 0 0 0 0 1017.3 1017.0 0.0
01/10:00pm 4.0 2.4 2.4 89 0.6 CALM 0 0 0 0 1017.3 1017.0 0.0
01/09:30pm 4.4 1.6 2.1 85 0.9 NW 6 6 3 3 1017.4 1017.1 0.0
01/09:00pm 5.3 2.7 3.2 86 0.9 W 6 7 3 4 1017.4 1017.1 0.0
01/08:30pm 5.7 3.1 3.2 84 1.1 WNW 6 6 3 3 1017.0 1016.7 0.0
01/08:00pm 7.0 4.4 3.3 77 1.6 WNW 6 7 3 4 1016.8 1016.5 0.0
01/07:30pm 9.2 8.0 4.6 73 2.1 CALM 0 0 0 0 1016.5 1016.2 0.0
01/07:00pm 8.6 6.9 4.0 73 2.0 W 2 7 1 4 1016.3 1016.0 0.0
01/06:30pm 10.1 7.6 4.5 68 2.5 ENE 7 7 4 4 1015.9 1015.6 0.0
01/06:00pm 12.3 9.9 4.5 59 3.6 ENE 6 7 3 4 1015.7 1015.4 0.0
01/05:30pm 14.6 12.0 4.3 50 4.8 NE 7 7 4 4 1015.4 1015.1 0.0
01/05:00pm 16.1 13.9 5.4 49 5.2 N 6 7 3 4 1015.3 1015.0 0.0
01/04:30pm 16.7 14.0 3.7 42 6.1 NE 7 13 4 7 1015.2 1014.9 0.0
01/04:00pm 17.0 14.0 1.8 36 6.9 NNE 7 15 4 8 1015.2 1014.9 0.0
01/03:30pm 16.8 12.7 2.0 37 6.7 N 13 17 7 9 1015.4 1015.1 0.0
01/03:00pm 17.5 14.4 1.5 34 7.2 N 7 15 4 8 1015.6 1015.3 0.0
01/02:30pm 16.8 12.5 0.9 34 7.1 WNW 13 20 7 11 1015.8 1015.5 0.0
01/02:00pm 16.7 12.6 2.3 38 6.6 NW 13 24 7 13 1016.2 1015.9 0.0
01/01:30pm 17.0 13.0 2.6 38 6.6 NW 13 20 7 11 1016.3 1016.0 0.0
01/01:00pm 16.2 11.9 1.1 36 6.7 NW 13 20 7 11 1016.6 1016.3 0.0
01/12:30pm 15.5 11.6 0.9 37 6.4 W 11 24 6 13 1017.0 1016.7 0.0
01/12:00pm 15.6 11.0 1.3 38 6.3 NW 15 20 8 11 1017.4 1017.1 0.0
01/11:30am 14.9 11.2 2.4 43 5.6 NW 11 17 6 9 1017.9 1017.7 0.0
01/11:00am 14.3 11.6 5.4 55 4.2 WNW 9 19 5 10 1018.4 1018.1 0.0
01/10:30am 13.4 10.9 4.6 55 4.1 NE 7 11 4 6 1018.7 1018.4 0.0
01/10:00am 12.2 9.7 6.5 68 2.7 WNW 9 13 5 7 1018.9 1018.6 0.0
01/09:30am 10.5 7.7 5.3 70 2.4 WNW 9 13 5 7 1019.0 1019.1 0.0
01/09:00am 8.9 6.1 5.1 77 1.7 NNW 9 13 5 7 1019.0 1019.1 0.0
01/08:30am 7.3 4.4 4.8 84 1.1 NW 9 13 5 7 1019.0 1019.1 0.0
01/08:00am 5.5 2.2 4.3 92 0.5 NW 11 15 6 8 1018.8 1018.9 0.0
01/07:30am 3.9 1.1 3.2 95 0.3 NW 7 9 4 5 1018.4 1018.5 0.0
01/07:00am 0.3 -3.1 -0.5 94 0.3 NW 7 9 4 5 1018.1 1018.3 0.0
01/06:30am -0.1 -2.2 -0.9 94 0.3 CALM 0 0 0 0 1017.5 1017.7 0.0
01/06:00am -0.1 -2.2 -1.1 93 0.4 CALM 0 4 0 2 1017.3 1017.5 0.0
01/05:30am -0.4 -2.6 -1.4 93 0.3 CALM 0 0 0 0 1017.0 1017.2 0.0
01/05:00am 0.7 -1.3 -0.3 93 0.4 CALM 0 0 0 0 1016.8 1016.9 0.0
01/04:30am 0.7 -2.5 -0.7 90 0.5 NW 6 9 3 5 1016.8 1016.9 0.0
01/04:00am 2.5 -1.4 1.3 92 0.5 WNW 11 15 6 8 1016.5 1016.6 0.0
01/03:30am 1.8 -1.4 0.5 91 0.5 WNW 7 9 4 5 1016.8 1016.9 0.0
01/03:00am 2.6 -0.4 0.7 87 0.7 W 6 9 3 5 1016.9 1017.0 0.0
01/02:30am 4.2 0.9 2.7 90 0.6 WNW 9 11 5 6 1016.9 1017.0 0.0
01/02:00am 3.8 0.5 2.6 92 0.5 WNW 9 11 5 6 1017.1 1017.3 0.0
01/01:30am 3.8 0.8 2.3 90 0.6 W 7 9 4 5 1017.3 1017.5 0.0
01/01:00am 3.5 1.9 2.2 91 0.5 CALM 0 0 0 0 1017.6 1017.8 0.0
01/12:30am 4.0 1.0 2.2 88 0.7 NNW 7 9 4 5 1017.6 1017.8 0.0
01/12:00am 3.6 0.1 1.5 86 0.8 N 9 13 5 7 1017.8 1018.0 0.0
 
Date/Time
EST
Temp
°C
App
Temp
°C
Dew
Point
Rel
Hum
%
Delta-T
°C
Wind Press
QNH
hPa
Press
MSL
hPa
Rain
since 9 am
mm
Dir
 
Spd
km/h
Gust
km/h
Spd
kts
Gust
kts
31/11:30pm 4.5 0.9 3.0 90 0.6 N 11 15 6 8 1017.7 1017.9 0.0
31/11:00pm 3.8 -0.4 1.7 86 0.8 NNE 13 13 7 7 1017.7 1017.9 0.0
31/10:30pm 5.9 2.8 1.6 74 1.7 N 7 13 4 7 1017.7 1017.9 0.0
31/10:00pm 10.0 6.3 4.6 69 2.4 W 13 22 7 12 1017.7 1017.9 0.0
31/09:30pm 8.5 6.0 4.5 76 1.8 NNW 7 9 4 5 1017.5 1017.7 0.0
31/09:00pm 9.4 6.9 4.6 72 2.2 NW 7 9 4 5 1017.3 1017.5 0.0
31/08:30pm 11.4 8.5 4.6 63 3.1 WSW 9 17 5 9 1017.1 1017.3 0.0
31/08:00pm 10.3 7.9 5.1 70 2.4 W 7 9 4 5 1016.6 1016.7 0.0
31/07:30pm 10.6 8.3 4.9 68 2.6 WNW 6 7 3 4 1016.3 1016.4 0.0
31/07:00pm 10.1 7.3 5.1 71 2.3 NNW 9 9 5 5 1016.0 1016.1 0.0
31/06:30pm 11.3 8.2 3.8 60 3.4 SW 9 13 5 7 1015.6 1015.7 0.0
31/06:00pm 13.2 9.2 4.9 57 3.9 SW 15 17 8 9 1015.4 1015.5 0.0
31/05:30pm 14.9 12.7 6.0 55 4.3 NW 7 9 4 5 1015.1 1015.2 0.0
31/05:00pm 15.6 13.5 6.6 55 4.5 WNW 7 11 4 6 1015.0 1015.1 0.0
31/04:30pm 17.6 14.7 4.9 43 6.2 W 9 13 5 7 1014.7 1014.8 0.0
31/04:00pm 18.0 14.4 5.2 43 6.3 W 13 19 7 10 1014.6 1014.7 0.0
31/03:30pm 17.6 13.5 4.5 42 6.3 SW 15 22 8 12 1014.7 1014.8 0.0
31/03:00pm 17.4 13.7 4.4 42 6.2 W 13 22 7 12 1014.7 1014.8 0.0
31/02:30pm 17.5 14.0 3.4 39 6.6 WSW 11 22 6 12 1015.0 1015.1 0.0
31/02:00pm 17.1 13.8 4.4 43 6.1 NW 11 17 6 9 1015.3 1015.4 0.0
31/01:30pm 17.0 13.3 4.3 43 6.1 NW 13 19 7 10 1015.6 1015.7 0.0
31/01:00pm 16.3 12.3 5.0 47 5.4 WNW 15 22 8 12 1016.1 1016.2 0.0
31/12:30pm 16.1 12.1 4.8 47 5.4 WNW 15 24 8 13 1016.5 1016.6 0.0
31/12:00pm 15.4 11.3 6.1 54 4.5 NW 17 24 9 13 1016.8 1016.9 0.0
31/11:30am 14.7 11.8 6.5 58 4.0 NW 11 17 6 9 1017.2 1017.4 0.0
31/11:00am 13.5 10.6 6.4 62 3.4 WNW 11 15 6 8 1017.8 1018.0 0.0
31/10:30am 12.8 10.3 6.6 66 3.0 W 9 13 5 7 1018.0 1018.2 0.0
31/10:00am 11.9 9.4 6.6 70 2.5 NW 9 13 5 7 1018.3 1018.4 0.0
31/09:30am 10.6 8.1 6.4 75 2.0 NNW 9 13 5 7 1018.4 1018.5 0.0
31/09:00am 9.1 6.8 5.7 79 1.6 NW 7 9 4 5 1018.5 1018.6 0.0
31/08:30am 7.7 5.5 5.2 84 1.1 NNE 6 7 3 4 1018.4 1018.5 0.0
31/08:00am 5.7 4.5 4.8 94 0.4 CALM 0 0 0 0 1018.3 1018.4 0.0
31/07:30am 3.1 1.5 2.4 95 0.3 CALM 0 0 0 0 1018.1 1018.3 0.0
31/07:00am 1.0 -1.0 0.1 94 0.3 CALM 0 0 0 0 1017.9 1018.1 0.0
31/06:30am 0.4 -1.6 -0.4 94 0.3 CALM 0 0 0 0 1017.7 1017.9 0.0
31/06:00am 0.0 -2.1 -0.8 94 0.3 CALM 0 0 0 0 1017.6 1017.8 0.0
31/05:30am 0.4 -1.6 -0.4 94 0.3 CALM 0 0 0 0 1017.4 1017.6 0.0
31/05:00am 0.6 -1.4 -0.3 94 0.3 CALM 0 0 0 0 1017.4 1017.6 0.0
31/04:30am 0.5 -1.5 -0.4 94 0.3 CALM 0 0 0 0 1017.5 1017.7 0.0
31/04:00am 0.8 -1.2 -0.2 93 0.4 CALM 0 0 0 0 1017.4 1017.6 0.0
31/03:30am 1.3 -0.6 0.3 93 0.4 CALM 0 0 0 0 1017.4 1017.6 0.0
31/03:00am 1.1 -0.9 -0.1 92 0.4 CALM 0 0 0 0 1017.6 1017.8 0.0
31/02:30am 1.7 -0.2 0.5 92 0.5 CALM 0 0 0 0 1017.8 1018.0 0.0
31/02:00am 1.8 -0.1 0.6 92 0.5 CALM 0 0 0 0 1017.9 1018.1 0.0
31/01:30am 2.1 0.3 0.9 92 0.5 CALM 0 0 0 0 1018.3 1018.4 0.0
31/01:00am 2.4 0.6 1.1 91 0.5 CALM 0 0 0 0 1018.6 1018.7 0.0
31/12:30am 1.5 -0.9 -0.1 89 0.6 E 2 6 1 3 1018.7 1018.8 0.0
31/12:00am 1.7 -0.3 -0.1 88 0.7 CALM 0 0 0 0 1018.6 1018.7 0.0
 
Date/Time
EST
Temp
°C
App
Temp
°C
Dew
Point
Rel
Hum
%
Delta-T
°C
Wind Press
QNH
hPa
Press
MSL
hPa
Rain
since 9 am
mm
Dir
 
Spd
km/h
Gust
km/h
Spd
kts
Gust
kts
30/11:30pm 2.0 0.0 -0.1 86 0.8 CALM 0 2 0 1 1018.6 1018.7 0.0
30/11:00pm 2.7 -0.4 0.4 85 0.9 NNE 6 7 3 4 1018.7 1018.8 0.0
30/10:30pm 4.5 1.5 1.9 83 1.0 N 7 11 4 6 1018.8 1018.9 0.0
30/10:00pm 4.0 0.4 0.5 78 1.4 NNW 9 9 5 5 1018.8 1018.9 0.0
30/09:30pm 5.2 2.1 1.5 77 1.5 N 7 9 4 5 1018.8 1018.9 0.0
30/09:00pm 6.1 3.4 2.7 79 1.4 N 6 11 3 6 1018.6 1018.7 0.0
30/08:30pm 5.3 2.2 1.6 77 1.5 N 7 11 4 6 1018.5 1018.6 0.0
30/08:00pm 7.0 5.3 2.1 71 2.0 CALM 0 0 0 0 1018.3 1018.4 0.0
30/07:30pm 9.5 6.9 3.0 64 2.8 S 6 11 3 6 1018.0 1018.2 0.0
30/07:00pm 7.5 4.8 3.7 77 1.6 SW 7 11 4 6 1017.8 1018.0 0.0
30/06:30pm 9.5 7.6 2.8 63 2.9 NE 2 6 1 3 1017.5 1017.7 0.0
30/06:00pm 10.8 7.6 3.1 59 3.4 NE 9 11 5 6 1017.3 1017.5 0.0
30/05:30pm 13.3 10.6 3.9 53 4.3 ENE 7 9 4 5 1017.0 1017.2 0.0
30/05:00pm 15.2 12.4 3.0 44 5.6 ENE 7 9 4 5 1016.8 1016.9 0.0
30/04:30pm 15.9 12.9 2.0 39 6.3 E 7 9 4 5 1016.7 1016.8 0.0

Other Formats:

Comma delimited format used in spreadsheet applications
http://www.bom.gov.au/fwo/IDN60801/IDN60801.95740.axf

JavaScript Object Notation format (JSON) in row-major order
http://www.bom.gov.au/fwo/IDN60801/IDN60801.95740.json